sensor_id;sensor_type;location;lat;lon;timestamp;temperature;humidity
18597;DHT22;9428;50.950;6.912;2023-06-19T00:01:39;23.10;99.90
18597;DHT22;9428;50.950;6.912;2023-06-19T00:04:28;23.20;99.90
18597;DHT22;9428;50.950;6.912;2023-06-19T00:07:15;23.10;99.90
18597;DHT22;9428;50.950;6.912;2023-06-19T00:10:03;23.00;99.90
18597;DHT22;9428;50.950;6.912;2023-06-19T00:12:50;23.00;99.90
18597;DHT22;9428;50.950;6.912;2023-06-19T00:15:37;23.00;99.90
18597;DHT22;9428;50.950;6.912;2023-06-19T00:18:25;23.00;99.90
18597;DHT22;9428;50.950;6.912;2023-06-19T00:21:13;23.00;99.90
18597;DHT22;9428;50.950;6.912;2023-06-19T00:24:00;22.90;99.90
18597;DHT22;9428;50.950;6.912;2023-06-19T00:26:48;22.90;99.90
18597;DHT22;9428;50.950;6.912;2023-06-19T00:29:35;22.90;99.90
18597;DHT22;9428;50.950;6.912;2023-06-19T00:32:22;22.90;99.90
18597;DHT22;9428;50.950;6.912;2023-06-19T00:35:09;22.90;99.90
18597;DHT22;9428;50.950;6.912;2023-06-19T00:37:58;22.80;99.90
18597;DHT22;9428;50.950;6.912;2023-06-19T00:40:46;22.80;99.90
18597;DHT22;9428;50.950;6.912;2023-06-19T00:43:35;22.80;99.90
18597;DHT22;9428;50.950;6.912;2023-06-19T00:46:23;22.70;99.90
18597;DHT22;9428;50.950;6.912;2023-06-19T00:49:10;22.70;99.90
18597;DHT22;9428;50.950;6.912;2023-06-19T00:51:57;22.70;99.90
18597;DHT22;9428;50.950;6.912;2023-06-19T00:54:46;22.70;99.90
18597;DHT22;9428;50.950;6.912;2023-06-19T00:57:33;22.70;99.90
18597;DHT22;9428;50.950;6.912;2023-06-19T01:00:21;22.70;99.90
18597;DHT22;9428;50.950;6.912;2023-06-19T01:03:09;22.70;99.90
18597;DHT22;9428;50.950;6.912;2023-06-19T01:05:57;22.70;99.90
18597;DHT22;9428;50.950;6.912;2023-06-19T01:08:53;22.80;99.90
18597;DHT22;9428;50.950;6.912;2023-06-19T01:11:47;22.80;99.90
18597;DHT22;9428;50.950;6.912;2023-06-19T01:14:38;22.80;99.90
18597;DHT22;9428;50.950;6.912;2023-06-19T01:17:26;22.80;99.90
18597;DHT22;9428;50.950;6.912;2023-06-19T01:20:15;22.80;99.90
18597;DHT22;9428;50.950;6.912;2023-06-19T01:23:12;22.80;99.90
18597;DHT22;9428;50.950;6.912;2023-06-19T01:25:59;22.70;99.90
18597;DHT22;9428;50.950;6.912;2023-06-19T01:28:47;22.60;99.90
18597;DHT22;9428;50.950;6.912;2023-06-19T01:31:38;22.70;99.90
18597;DHT22;9428;50.950;6.912;2023-06-19T01:34:30;22.60;99.90
18597;DHT22;9428;50.950;6.912;2023-06-19T01:37:18;22.60;99.90
18597;DHT22;9428;50.950;6.912;2023-06-19T01:40:09;22.60;99.90
18597;DHT22;9428;50.950;6.912;2023-06-19T01:42:57;22.50;99.90
18597;DHT22;9428;50.950;6.912;2023-06-19T01:45:46;22.60;99.90
18597;DHT22;9428;50.950;6.912;2023-06-19T01:48:35;22.50;99.90
18597;DHT22;9428;50.950;6.912;2023-06-19T01:51:22;22.50;99.90
18597;DHT22;9428;50.950;6.912;2023-06-19T01:54:10;22.50;99.90
18597;DHT22;9428;50.950;6.912;2023-06-19T01:56:59;22.40;99.90
18597;DHT22;9428;50.950;6.912;2023-06-19T01:59:49;22.50;99.90
18597;DHT22;9428;50.950;6.912;2023-06-19T02:02:36;22.40;99.90
18597;DHT22;9428;50.950;6.912;2023-06-19T02:05:23;22.40;99.90
18597;DHT22;9428;50.950;6.912;2023-06-19T02:08:11;22.40;99.90
18597;DHT22;9428;50.950;6.912;2023-06-19T02:10:58;22.50;99.90
18597;DHT22;9428;50.950;6.912;2023-06-19T02:13:47;22.50;99.90
18597;DHT22;9428;50.950;6.912;2023-06-19T02:16:34;22.50;99.90
18597;DHT22;9428;50.950;6.912;2023-06-19T02:19:21;22.50;99.90
18597;DHT22;9428;50.950;6.912;2023-06-19T02:22:08;22.50;99.90
18597;DHT22;9428;50.950;6.912;2023-06-19T02:24:57;22.50;99.90
18597;DHT22;9428;50.950;6.912;2023-06-19T02:27:44;22.50;99.90
18597;DHT22;9428;50.950;6.912;2023-06-19T02:30:33;22.60;99.90
18597;DHT22;9428;50.950;6.912;2023-06-19T02:33:20;22.60;99.90
18597;DHT22;9428;50.950;6.912;2023-06-19T02:36:08;22.60;99.90
18597;DHT22;9428;50.950;6.912;2023-06-19T02:38:55;22.60;99.90
18597;DHT22;9428;50.950;6.912;2023-06-19T02:41:42;22.60;99.90
18597;DHT22;9428;50.950;6.912;2023-06-19T02:44:31;22.60;99.90
18597;DHT22;9428;50.950;6.912;2023-06-19T02:47:20;22.70;99.90
18597;DHT22;9428;50.950;6.912;2023-06-19T02:50:08;22.60;99.90
18597;DHT22;9428;50.950;6.912;2023-06-19T02:52:55;22.60;99.90
18597;DHT22;9428;50.950;6.912;2023-06-19T02:55:43;22.60;99.90
18597;DHT22;9428;50.950;6.912;2023-06-19T02:58:30;22.50;99.90
18597;DHT22;9428;50.950;6.912;2023-06-19T03:01:18;22.50;99.90
18597;DHT22;9428;50.950;6.912;2023-06-19T03:04:07;22.50;99.90
18597;DHT22;9428;50.950;6.912;2023-06-19T03:06:54;22.50;99.90
18597;DHT22;9428;50.950;6.912;2023-06-19T03:09:41;22.50;99.90
18597;DHT22;9428;50.950;6.912;2023-06-19T03:12:28;22.50;99.90
18597;DHT22;9428;50.950;6.912;2023-06-19T03:15:16;22.50;99.90
18597;DHT22;9428;50.950;6.912;2023-06-19T03:18:03;22.40;99.90
18597;DHT22;9428;50.950;6.912;2023-06-19T03:20:54;22.40;99.90
18597;DHT22;9428;50.950;6.912;2023-06-19T03:23:41;22.30;99.90
18597;DHT22;9428;50.950;6.912;2023-06-19T03:26:28;22.40;99.90
18597;DHT22;9428;50.950;6.912;2023-06-19T03:29:16;22.20;99.90
18597;DHT22;9428;50.950;6.912;2023-06-19T03:32:03;22.20;99.90
18597;DHT22;9428;50.950;6.912;2023-06-19T03:34:51;22.20;99.90
18597;DHT22;9428;50.950;6.912;2023-06-19T03:37:39;22.20;99.90
18597;DHT22;9428;50.950;6.912;2023-06-19T03:40:27;22.30;99.90
18597;DHT22;9428;50.950;6.912;2023-06-19T03:43:14;22.20;99.90
18597;DHT22;9428;50.950;6.912;2023-06-19T03:46:02;22.10;99.90
18597;DHT22;9428;50.950;6.912;2023-06-19T03:48:49;22.10;99.90
18597;DHT22;9428;50.950;6.912;2023-06-19T03:51:36;22.10;99.90
18597;DHT22;9428;50.950;6.912;2023-06-19T03:54:25;22.10;99.90
18597;DHT22;9428;50.950;6.912;2023-06-19T03:57:13;22.00;99.90
18597;DHT22;9428;50.950;6.912;2023-06-19T04:00:00;22.00;99.90
18597;DHT22;9428;50.950;6.912;2023-06-19T04:02:50;21.90;99.90
18597;DHT22;9428;50.950;6.912;2023-06-19T04:05:37;21.80;99.90
18597;DHT22;9428;50.950;6.912;2023-06-19T04:08:25;21.80;99.90
18597;DHT22;9428;50.950;6.912;2023-06-19T04:11:13;21.80;99.90
18597;DHT22;9428;50.950;6.912;2023-06-19T04:14:00;21.70;99.90
18597;DHT22;9428;50.950;6.912;2023-06-19T04:16:48;21.70;99.90
18597;DHT22;9428;50.950;6.912;2023-06-19T04:19:35;21.70;99.90
18597;DHT22;9428;50.950;6.912;2023-06-19T04:22:22;21.70;99.90
18597;DHT22;9428;50.950;6.912;2023-06-19T04:25:10;21.60;99.90
18597;DHT22;9428;50.950;6.912;2023-06-19T04:28:02;21.70;99.90
18597;DHT22;9428;50.950;6.912;2023-06-19T04:30:50;21.60;99.90
18597;DHT22;9428;50.950;6.912;2023-06-19T04:33:41;21.60;99.90
18597;DHT22;9428;50.950;6.912;2023-06-19T04:36:29;21.60;99.90
18597;DHT22;9428;50.950;6.912;2023-06-19T04:39:17;21.60;99.90
18597;DHT22;9428;50.950;6.912;2023-06-19T04:42:05;21.60;99.90
18597;DHT22;9428;50.950;6.912;2023-06-19T04:44:54;21.40;99.90
18597;DHT22;9428;50.950;6.912;2023-06-19T04:47:44;21.30;99.90
18597;DHT22;9428;50.950;6.912;2023-06-19T04:50:32;21.30;99.90
18597;DHT22;9428;50.950;6.912;2023-06-19T04:53:19;21.30;99.90
18597;DHT22;9428;50.950;6.912;2023-06-19T04:56:06;21.30;99.90
18597;DHT22;9428;50.950;6.912;2023-06-19T04:58:54;21.40;99.90
18597;DHT22;9428;50.950;6.912;2023-06-19T05:01:46;21.30;99.90
18597;DHT22;9428;50.950;6.912;2023-06-19T05:04:33;21.40;99.90
18597;DHT22;9428;50.950;6.912;2023-06-19T05:07:21;21.50;99.90
18597;DHT22;9428;50.950;6.912;2023-06-19T05:10:09;21.60;99.90
18597;DHT22;9428;50.950;6.912;2023-06-19T05:12:56;21.50;99.90
18597;DHT22;9428;50.950;6.912;2023-06-19T05:15:45;21.50;99.90
18597;DHT22;9428;50.950;6.912;2023-06-19T05:18:34;21.50;99.90
18597;DHT22;9428;50.950;6.912;2023-06-19T05:21:21;21.60;99.90
18597;DHT22;9428;50.950;6.912;2023-06-19T05:24:08;21.50;99.90
18597;DHT22;9428;50.950;6.912;2023-06-19T05:26:55;21.60;99.90
18597;DHT22;9428;50.950;6.912;2023-06-19T05:29:43;21.60;99.90
18597;DHT22;9428;50.950;6.912;2023-06-19T05:32:32;21.60;99.90
18597;DHT22;9428;50.950;6.912;2023-06-19T05:35:20;21.60;99.90
18597;DHT22;9428;50.950;6.912;2023-06-19T05:38:11;21.40;99.90
18597;DHT22;9428;50.950;6.912;2023-06-19T05:40:58;21.50;99.90
18597;DHT22;9428;50.950;6.912;2023-06-19T05:43:46;21.60;99.90
18597;DHT22;9428;50.950;6.912;2023-06-19T05:46:33;21.60;99.90
18597;DHT22;9428;50.950;6.912;2023-06-19T05:49:20;21.70;99.90
18597;DHT22;9428;50.950;6.912;2023-06-19T05:52:09;21.70;99.90
18597;DHT22;9428;50.950;6.912;2023-06-19T05:54:56;21.70;99.90
18597;DHT22;9428;50.950;6.912;2023-06-19T05:57:44;21.80;99.90
18597;DHT22;9428;50.950;6.912;2023-06-19T06:00:31;21.80;99.90
18597;DHT22;9428;50.950;6.912;2023-06-19T06:03:18;21.80;99.90
18597;DHT22;9428;50.950;6.912;2023-06-19T06:06:06;22.00;99.90
18597;DHT22;9428;50.950;6.912;2023-06-19T06:08:55;21.90;99.90
18597;DHT22;9428;50.950;6.912;2023-06-19T06:11:42;22.00;99.90
18597;DHT22;9428;50.950;6.912;2023-06-19T06:14:29;21.90;99.90
18597;DHT22;9428;50.950;6.912;2023-06-19T06:17:16;22.30;99.90
18597;DHT22;9428;50.950;6.912;2023-06-19T06:20:04;22.50;99.90
18597;DHT22;9428;50.950;6.912;2023-06-19T06:22:56;22.60;99.90
18597;DHT22;9428;50.950;6.912;2023-06-19T06:25:45;22.80;99.90
18597;DHT22;9428;50.950;6.912;2023-06-19T06:28:32;22.90;99.90
18597;DHT22;9428;50.950;6.912;2023-06-19T06:31:21;22.80;99.90
18597;DHT22;9428;50.950;6.912;2023-06-19T06:34:08;22.70;99.90
18597;DHT22;9428;50.950;6.912;2023-06-19T06:36:55;22.80;99.90
18597;DHT22;9428;50.950;6.912;2023-06-19T06:39:43;22.90;99.90
18597;DHT22;9428;50.950;6.912;2023-06-19T06:42:32;23.00;99.90
18597;DHT22;9428;50.950;6.912;2023-06-19T06:45:19;23.00;99.90
18597;DHT22;9428;50.950;6.912;2023-06-19T06:48:06;23.50;99.90
18597;DHT22;9428;50.950;6.912;2023-06-19T06:50:53;22.90;99.90
18597;DHT22;9428;50.950;6.912;2023-06-19T06:53:46;22.90;99.90
18597;DHT22;9428;50.950;6.912;2023-06-19T06:56:33;23.10;99.90
18597;DHT22;9428;50.950;6.912;2023-06-19T06:59:22;23.40;99.90
18597;DHT22;9428;50.950;6.912;2023-06-19T07:02:10;23.40;99.90
18597;DHT22;9428;50.950;6.912;2023-06-19T07:04:57;23.30;99.90
18597;DHT22;9428;50.950;6.912;2023-06-19T07:07:44;23.50;99.90
18597;DHT22;9428;50.950;6.912;2023-06-19T07:10:32;23.60;99.90
18597;DHT22;9428;50.950;6.912;2023-06-19T07:13:19;23.60;99.90
18597;DHT22;9428;50.950;6.912;2023-06-19T07:16:07;23.70;99.90
18597;DHT22;9428;50.950;6.912;2023-06-19T07:18:55;23.60;99.90
18597;DHT22;9428;50.950;6.912;2023-06-19T07:21:43;23.40;99.90
18597;DHT22;9428;50.950;6.912;2023-06-19T07:24:30;23.40;99.90
18597;DHT22;9428;50.950;6.912;2023-06-19T07:27:17;23.70;99.90
18597;DHT22;9428;50.950;6.912;2023-06-19T07:30:06;23.70;99.90
18597;DHT22;9428;50.950;6.912;2023-06-19T07:32:54;23.90;99.90
18597;DHT22;9428;50.950;6.912;2023-06-19T07:35:41;23.90;99.90
18597;DHT22;9428;50.950;6.912;2023-06-19T07:38:29;23.70;99.90
18597;DHT22;9428;50.950;6.912;2023-06-19T07:41:16;23.50;99.90
18597;DHT22;9428;50.950;6.912;2023-06-19T07:44:03;23.40;99.90
18597;DHT22;9428;50.950;6.912;2023-06-19T07:46:51;23.60;99.90
18597;DHT22;9428;50.950;6.912;2023-06-19T07:49:39;23.60;99.90
18597;DHT22;9428;50.950;6.912;2023-06-19T07:52:27;23.00;99.90
18597;DHT22;9428;50.950;6.912;2023-06-19T07:55:14;23.40;99.90
18597;DHT22;9428;50.950;6.912;2023-06-19T07:58:01;23.50;99.90
18597;DHT22;9428;50.950;6.912;2023-06-19T08:00:48;23.50;99.90
18597;DHT22;9428;50.950;6.912;2023-06-19T08:03:36;22.80;99.90
18597;DHT22;9428;50.950;6.912;2023-06-19T08:06:24;23.50;99.90
18597;DHT22;9428;50.950;6.912;2023-06-19T08:09:12;22.60;99.90
18597;DHT22;9428;50.950;6.912;2023-06-19T08:12:00;23.40;99.90
18597;DHT22;9428;50.950;6.912;2023-06-19T08:14:47;23.40;99.90
18597;DHT22;9428;50.950;6.912;2023-06-19T08:17:34;23.40;99.90
18597;DHT22;9428;50.950;6.912;2023-06-19T08:20:22;23.60;99.90
18597;DHT22;9428;50.950;6.912;2023-06-19T08:23:10;23.80;99.90
18597;DHT22;9428;50.950;6.912;2023-06-19T08:25:58;23.90;99.90
18597;DHT22;9428;50.950;6.912;2023-06-19T08:28:45;24.10;99.90
18597;DHT22;9428;50.950;6.912;2023-06-19T08:31:32;24.00;99.90
18597;DHT22;9428;50.950;6.912;2023-06-19T08:34:19;24.00;99.90
18597;DHT22;9428;50.950;6.912;2023-06-19T08:37:07;24.00;99.90
18597;DHT22;9428;50.950;6.912;2023-06-19T08:39:56;24.20;99.90
18597;DHT22;9428;50.950;6.912;2023-06-19T08:42:43;24.00;99.90
18597;DHT22;9428;50.950;6.912;2023-06-19T08:45:30;24.00;99.90
18597;DHT22;9428;50.950;6.912;2023-06-19T08:48:20;24.00;99.90
18597;DHT22;9428;50.950;6.912;2023-06-19T08:51:08;23.80;99.90
18597;DHT22;9428;50.950;6.912;2023-06-19T08:53:59;23.80;99.90
18597;DHT22;9428;50.950;6.912;2023-06-19T08:56:48;23.90;99.90
18597;DHT22;9428;50.950;6.912;2023-06-19T08:59:36;24.20;99.90
18597;DHT22;9428;50.950;6.912;2023-06-19T09:02:23;24.10;99.90
18597;DHT22;9428;50.950;6.912;2023-06-19T09:05:14;24.20;99.90
18597;DHT22;9428;50.950;6.912;2023-06-19T09:08:02;24.30;99.90
18597;DHT22;9428;50.950;6.912;2023-06-19T09:10:59;24.40;99.90
18597;DHT22;9428;50.950;6.912;2023-06-19T09:13:59;24.50;99.90
18597;DHT22;9428;50.950;6.912;2023-06-19T09:16:46;24.80;99.90
18597;DHT22;9428;50.950;6.912;2023-06-19T09:19:34;24.90;99.90
18597;DHT22;9428;50.950;6.912;2023-06-19T09:22:22;24.90;99.90
18597;DHT22;9428;50.950;6.912;2023-06-19T09:25:11;24.70;99.90
18597;DHT22;9428;50.950;6.912;2023-06-19T09:27:58;24.30;99.90
18597;DHT22;9428;50.950;6.912;2023-06-19T09:30:57;24.50;99.90
18597;DHT22;9428;50.950;6.912;2023-06-19T09:33:44;24.60;99.90
18597;DHT22;9428;50.950;6.912;2023-06-19T09:36:32;24.90;99.90
18597;DHT22;9428;50.950;6.912;2023-06-19T09:39:21;24.90;99.90
18597;DHT22;9428;50.950;6.912;2023-06-19T09:42:10;24.90;99.90
18597;DHT22;9428;50.950;6.912;2023-06-19T09:45:00;25.20;99.90
18597;DHT22;9428;50.950;6.912;2023-06-19T09:47:52;25.00;99.90
18597;DHT22;9428;50.950;6.912;2023-06-19T09:50:40;24.40;99.90
18597;DHT22;9428;50.950;6.912;2023-06-19T09:53:27;24.60;99.90
18597;DHT22;9428;50.950;6.912;2023-06-19T09:56:16;25.00;99.90
18597;DHT22;9428;50.950;6.912;2023-06-19T09:59:08;25.00;99.90
18597;DHT22;9428;50.950;6.912;2023-06-19T10:01:57;24.70;99.90
18597;DHT22;9428;50.950;6.912;2023-06-19T10:04:48;24.70;99.90
18597;DHT22;9428;50.950;6.912;2023-06-19T10:07:36;24.90;99.90
18597;DHT22;9428;50.950;6.912;2023-06-19T10:10:26;25.00;99.90
18597;DHT22;9428;50.950;6.912;2023-06-19T10:13:14;25.10;99.90
18597;DHT22;9428;50.950;6.912;2023-06-19T10:16:02;25.10;99.90
18597;DHT22;9428;50.950;6.912;2023-06-19T10:18:50;25.30;99.90
18597;DHT22;9428;50.950;6.912;2023-06-19T10:21:46;25.00;99.90
18597;DHT22;9428;50.950;6.912;2023-06-19T10:24:33;25.00;99.90
18597;DHT22;9428;50.950;6.912;2023-06-19T10:27:22;25.10;99.90
18597;DHT22;9428;50.950;6.912;2023-06-19T10:30:16;25.10;99.90
18597;DHT22;9428;50.950;6.912;2023-06-19T10:33:04;25.10;99.90
18597;DHT22;9428;50.950;6.912;2023-06-19T10:35:52;25.10;99.90
18597;DHT22;9428;50.950;6.912;2023-06-19T10:38:41;25.00;99.90
18597;DHT22;9428;50.950;6.912;2023-06-19T10:41:33;24.90;99.90
18597;DHT22;9428;50.950;6.912;2023-06-19T10:44:23;24.90;99.90
18597;DHT22;9428;50.950;6.912;2023-06-19T10:47:12;25.10;99.90
18597;DHT22;9428;50.950;6.912;2023-06-19T10:49:59;25.00;99.90
18597;DHT22;9428;50.950;6.912;2023-06-19T10:52:47;25.30;99.90
18597;DHT22;9428;50.950;6.912;2023-06-19T10:55:36;25.20;99.90
18597;DHT22;9428;50.950;6.912;2023-06-19T10:58:23;25.40;99.90
18597;DHT22;9428;50.950;6.912;2023-06-19T11:01:10;25.60;99.90
18597;DHT22;9428;50.950;6.912;2023-06-19T11:03:58;25.50;99.90
18597;DHT22;9428;50.950;6.912;2023-06-19T11:06:45;25.60;99.90
18597;DHT22;9428;50.950;6.912;2023-06-19T11:09:33;25.40;99.90
18597;DHT22;9428;50.950;6.912;2023-06-19T11:12:21;25.50;99.90
18597;DHT22;9428;50.950;6.912;2023-06-19T11:15:10;25.70;99.90
18597;DHT22;9428;50.950;6.912;2023-06-19T11:17:58;25.70;99.90
18597;DHT22;9428;50.950;6.912;2023-06-19T11:20:47;25.70;99.90
18597;DHT22;9428;50.950;6.912;2023-06-19T11:23:37;25.80;99.90
18597;DHT22;9428;50.950;6.912;2023-06-19T11:26:24;25.70;99.90
18597;DHT22;9428;50.950;6.912;2023-06-19T11:29:17;25.70;99.90
18597;DHT22;9428;50.950;6.912;2023-06-19T11:32:06;25.50;99.90
18597;DHT22;9428;50.950;6.912;2023-06-19T11:34:54;25.50;99.90
18597;DHT22;9428;50.950;6.912;2023-06-19T11:37:42;25.50;99.90
18597;DHT22;9428;50.950;6.912;2023-06-19T11:40:39;25.50;99.90
18597;DHT22;9428;50.950;6.912;2023-06-19T11:43:28;25.50;99.90
18597;DHT22;9428;50.950;6.912;2023-06-19T11:46:17;25.50;99.90
18597;DHT22;9428;50.950;6.912;2023-06-19T11:49:11;25.40;99.90
18597;DHT22;9428;50.950;6.912;2023-06-19T11:52:00;25.30;99.90
18597;DHT22;9428;50.950;6.912;2023-06-19T11:54:47;25.20;99.90
18597;DHT22;9428;50.950;6.912;2023-06-19T11:57:35;25.50;99.90
18597;DHT22;9428;50.950;6.912;2023-06-19T12:00:22;25.70;99.90
18597;DHT22;9428;50.950;6.912;2023-06-19T12:03:11;25.50;99.90
18597;DHT22;9428;50.950;6.912;2023-06-19T12:05:58;25.70;99.90
18597;DHT22;9428;50.950;6.912;2023-06-19T12:08:45;25.80;99.90
18597;DHT22;9428;50.950;6.912;2023-06-19T12:11:32;25.70;99.90
18597;DHT22;9428;50.950;6.912;2023-06-19T12:14:20;25.90;99.90
18597;DHT22;9428;50.950;6.912;2023-06-19T12:17:07;25.70;99.90
18597;DHT22;9428;50.950;6.912;2023-06-19T12:19:55;25.90;99.90
18597;DHT22;9428;50.950;6.912;2023-06-19T12:22:43;25.80;99.90
18597;DHT22;9428;50.950;6.912;2023-06-19T12:25:30;25.90;99.90
18597;DHT22;9428;50.950;6.912;2023-06-19T12:28:17;25.90;99.90
18597;DHT22;9428;50.950;6.912;2023-06-19T12:31:05;25.90;99.90
18597;DHT22;9428;50.950;6.912;2023-06-19T12:33:52;25.90;99.90
18597;DHT22;9428;50.950;6.912;2023-06-19T12:36:41;26.00;99.90
18597;DHT22;9428;50.950;6.912;2023-06-19T12:39:28;26.20;99.90
18597;DHT22;9428;50.950;6.912;2023-06-19T12:42:16;26.50;99.90
18597;DHT22;9428;50.950;6.912;2023-06-19T12:45:03;26.50;99.90
18597;DHT22;9428;50.950;6.912;2023-06-19T12:47:50;26.60;99.90
18597;DHT22;9428;50.950;6.912;2023-06-19T12:50:38;26.60;99.90
18597;DHT22;9428;50.950;6.912;2023-06-19T12:53:26;26.60;99.90
18597;DHT22;9428;50.950;6.912;2023-06-19T12:56:15;26.60;99.90
18597;DHT22;9428;50.950;6.912;2023-06-19T12:59:02;26.50;99.90
18597;DHT22;9428;50.950;6.912;2023-06-19T13:01:49;26.50;99.90
18597;DHT22;9428;50.950;6.912;2023-06-19T13:04:37;26.70;99.90
18597;DHT22;9428;50.950;6.912;2023-06-19T13:07:24;26.80;99.90
18597;DHT22;9428;50.950;6.912;2023-06-19T13:10:13;26.80;99.90
18597;DHT22;9428;50.950;6.912;2023-06-19T13:13:00;26.70;99.90
18597;DHT22;9428;50.950;6.912;2023-06-19T13:15:47;26.80;99.90
18597;DHT22;9428;50.950;6.912;2023-06-19T13:18:35;27.00;99.90
18597;DHT22;9428;50.950;6.912;2023-06-19T13:21:22;26.90;99.90
18597;DHT22;9428;50.950;6.912;2023-06-19T13:24:10;26.80;99.90
18597;DHT22;9428;50.950;6.912;2023-06-19T13:26:59;26.80;99.90
18597;DHT22;9428;50.950;6.912;2023-06-19T13:29:46;26.60;99.90
18597;DHT22;9428;50.950;6.912;2023-06-19T13:32:33;26.60;99.90
18597;DHT22;9428;50.950;6.912;2023-06-19T13:35:21;26.60;99.90
18597;DHT22;9428;50.950;6.912;2023-06-19T13:38:08;26.80;99.90
18597;DHT22;9428;50.950;6.912;2023-06-19T13:40:56;26.80;99.90
18597;DHT22;9428;50.950;6.912;2023-06-19T13:43:45;26.60;99.90
18597;DHT22;9428;50.950;6.912;2023-06-19T13:46:33;26.60;99.90
18597;DHT22;9428;50.950;6.912;2023-06-19T13:49:20;26.50;99.90
18597;DHT22;9428;50.950;6.912;2023-06-19T13:52:07;26.40;99.90
18597;DHT22;9428;50.950;6.912;2023-06-19T13:54:55;26.40;99.90
18597;DHT22;9428;50.950;6.912;2023-06-19T13:57:42;26.40;99.90
18597;DHT22;9428;50.950;6.912;2023-06-19T14:00:31;26.40;99.90
18597;DHT22;9428;50.950;6.912;2023-06-19T14:03:18;26.40;99.90
18597;DHT22;9428;50.950;6.912;2023-06-19T14:06:06;26.80;99.90
18597;DHT22;9428;50.950;6.912;2023-06-19T14:08:54;26.70;99.90
18597;DHT22;9428;50.950;6.912;2023-06-19T14:11:41;26.50;99.90
18597;DHT22;9428;50.950;6.912;2023-06-19T14:14:29;26.40;99.90
18597;DHT22;9428;50.950;6.912;2023-06-19T14:17:18;26.20;99.90
18597;DHT22;9428;50.950;6.912;2023-06-19T14:20:06;26.30;99.90
18597;DHT22;9428;50.950;6.912;2023-06-19T14:22:54;26.40;99.90
18597;DHT22;9428;50.950;6.912;2023-06-19T14:25:41;26.30;99.90
18597;DHT22;9428;50.950;6.912;2023-06-19T14:28:28;26.50;99.90
18597;DHT22;9428;50.950;6.912;2023-06-19T14:31:16;26.60;99.90
18597;DHT22;9428;50.950;6.912;2023-06-19T14:34:04;26.70;99.90
18597;DHT22;9428;50.950;6.912;2023-06-19T14:36:51;26.60;99.90
18597;DHT22;9428;50.950;6.912;2023-06-19T14:39:39;26.50;98.80
18597;DHT22;9428;50.950;6.912;2023-06-19T14:42:26;26.50;99.00
18597;DHT22;9428;50.950;6.912;2023-06-19T14:45:13;26.50;99.90
18597;DHT22;9428;50.950;6.912;2023-06-19T14:48:00;26.40;99.90
18597;DHT22;9428;50.950;6.912;2023-06-19T14:50:49;26.40;99.90
18597;DHT22;9428;50.950;6.912;2023-06-19T14:53:37;26.40;99.90
18597;DHT22;9428;50.950;6.912;2023-06-19T14:56:24;26.40;99.90
18597;DHT22;9428;50.950;6.912;2023-06-19T14:59:11;26.80;99.90
18597;DHT22;9428;50.950;6.912;2023-06-19T15:01:58;26.80;99.90
18597;DHT22;9428;50.950;6.912;2023-06-19T15:04:47;26.70;99.90
18597;DHT22;9428;50.950;6.912;2023-06-19T15:07:36;26.50;99.90
18597;DHT22;9428;50.950;6.912;2023-06-19T15:10:23;26.40;99.90
18597;DHT22;9428;50.950;6.912;2023-06-19T15:13:10;26.50;99.90
18597;DHT22;9428;50.950;6.912;2023-06-19T15:15:58;26.50;99.90
18597;DHT22;9428;50.950;6.912;2023-06-19T15:18:45;26.60;99.90
18597;DHT22;9428;50.950;6.912;2023-06-19T15:21:33;26.90;99.90
18597;DHT22;9428;50.950;6.912;2023-06-19T15:24:21;26.90;99.90
18597;DHT22;9428;50.950;6.912;2023-06-19T15:27:09;26.50;99.90
18597;DHT22;9428;50.950;6.912;2023-06-19T15:29:57;26.80;99.90
18597;DHT22;9428;50.950;6.912;2023-06-19T15:32:44;27.10;99.90
18597;DHT22;9428;50.950;6.912;2023-06-19T15:35:31;27.00;99.90
18597;DHT22;9428;50.950;6.912;2023-06-19T15:38:19;26.80;99.90
18597;DHT22;9428;50.950;6.912;2023-06-19T15:41:07;26.80;99.90
18597;DHT22;9428;50.950;6.912;2023-06-19T15:43:54;26.70;99.90
18597;DHT22;9428;50.950;6.912;2023-06-19T15:46:42;26.80;99.90
18597;DHT22;9428;50.950;6.912;2023-06-19T15:49:29;26.80;99.90
18597;DHT22;9428;50.950;6.912;2023-06-19T15:52:16;26.60;99.90
18597;DHT22;9428;50.950;6.912;2023-06-19T15:55:05;26.70;99.90
18597;DHT22;9428;50.950;6.912;2023-06-19T15:57:53;26.80;99.90
18597;DHT22;9428;50.950;6.912;2023-06-19T16:00:41;26.80;99.90
18597;DHT22;9428;50.950;6.912;2023-06-19T16:03:28;26.80;99.90
18597;DHT22;9428;50.950;6.912;2023-06-19T16:06:17;26.70;99.90
18597;DHT22;9428;50.950;6.912;2023-06-19T16:09:04;26.90;99.90
18597;DHT22;9428;50.950;6.912;2023-06-19T16:11:52;26.90;99.90
18597;DHT22;9428;50.950;6.912;2023-06-19T16:14:40;26.80;99.90
18597;DHT22;9428;50.950;6.912;2023-06-19T16:17:27;26.80;99.90
18597;DHT22;9428;50.950;6.912;2023-06-19T16:20:15;26.90;99.90
18597;DHT22;9428;50.950;6.912;2023-06-19T16:23:02;26.90;99.90
18597;DHT22;9428;50.950;6.912;2023-06-19T16:25:49;26.80;99.90
18597;DHT22;9428;50.950;6.912;2023-06-19T16:28:36;27.00;99.90
18597;DHT22;9428;50.950;6.912;2023-06-19T16:31:25;27.20;99.90
18597;DHT22;9428;50.950;6.912;2023-06-19T16:34:12;27.00;99.90
18597;DHT22;9428;50.950;6.912;2023-06-19T16:36:59;26.90;99.90
18597;DHT22;9428;50.950;6.912;2023-06-19T16:39:46;26.90;99.90
18597;DHT22;9428;50.950;6.912;2023-06-19T16:42:34;26.80;99.90
18597;DHT22;9428;50.950;6.912;2023-06-19T16:45:21;26.80;99.90
18597;DHT22;9428;50.950;6.912;2023-06-19T16:48:13;26.80;99.90
18597;DHT22;9428;50.950;6.912;2023-06-19T16:51:01;26.80;99.90
18597;DHT22;9428;50.950;6.912;2023-06-19T16:53:49;26.60;99.90
18597;DHT22;9428;50.950;6.912;2023-06-19T16:56:36;26.60;99.90
18597;DHT22;9428;50.950;6.912;2023-06-19T16:59:23;26.80;99.90
18597;DHT22;9428;50.950;6.912;2023-06-19T17:02:11;26.80;99.90
18597;DHT22;9428;50.950;6.912;2023-06-19T17:04:59;27.00;99.90
18597;DHT22;9428;50.950;6.912;2023-06-19T17:07:47;26.90;99.90
18597;DHT22;9428;50.950;6.912;2023-06-19T17:10:34;27.00;99.90
18597;DHT22;9428;50.950;6.912;2023-06-19T17:13:21;26.80;99.90
18597;DHT22;9428;50.950;6.912;2023-06-19T17:16:09;26.80;99.90
18597;DHT22;9428;50.950;6.912;2023-06-19T17:18:56;26.80;99.90
18597;DHT22;9428;50.950;6.912;2023-06-19T17:21:45;26.90;99.90
18597;DHT22;9428;50.950;6.912;2023-06-19T17:24:33;26.90;99.90
18597;DHT22;9428;50.950;6.912;2023-06-19T17:27:20;27.00;99.90
18597;DHT22;9428;50.950;6.912;2023-06-19T17:30:09;26.80;99.90
18597;DHT22;9428;50.950;6.912;2023-06-19T17:32:57;26.70;99.90
18597;DHT22;9428;50.950;6.912;2023-06-19T17:35:44;26.60;99.90
18597;DHT22;9428;50.950;6.912;2023-06-19T17:38:32;26.60;99.90
18597;DHT22;9428;50.950;6.912;2023-06-19T17:41:20;26.60;99.90
18597;DHT22;9428;50.950;6.912;2023-06-19T17:44:07;26.60;99.90
18597;DHT22;9428;50.950;6.912;2023-06-19T17:46:55;26.70;99.90
18597;DHT22;9428;50.950;6.912;2023-06-19T17:49:42;26.70;99.90
18597;DHT22;9428;50.950;6.912;2023-06-19T17:52:29;26.70;99.90
18597;DHT22;9428;50.950;6.912;2023-06-19T17:55:18;26.60;99.90
18597;DHT22;9428;50.950;6.912;2023-06-19T17:58:05;26.60;99.90